Time;durP1;ratioP1;P1;durP2;ratioP2;P2;SDS_P1;SDS_P2;PMS_P1;PMS_P2;Temp;Humidity;BMP_temperature;BMP_pressure;BME280_temperature;BME280_humidity;BME280_pressure;Samples;Min_cycle;Max_cycle;Signal;HPM_P1;HPM_P2
2021/06/18 00:00:47;;;;;;;6.35;5.13;;;24.40;62.50;;;;;;5045436;28;20037;-90
2021/06/18 00:03:13;;;;;;;6.57;4.68;;;24.40;62.70;;;;;;5047441;28;20044;-91
2021/06/18 00:05:39;;;;;;;5.85;5.25;;;24.30;62.70;;;;;;5048235;28;20025;-91
2021/06/18 00:08:04;;;;;;;5.15;4.65;;;24.30;62.80;;;;;;5046477;28;20467;-91
2021/06/18 00:10:30;;;;;;;7.88;6.57;;;24.30;62.90;;;;;;5048425;28;20040;-91
2021/06/18 00:12:56;;;;;;;7.43;6.30;;;24.30;63.20;;;;;;5048302;28;20032;-92
2021/06/18 00:15:23;;;;;;;6.78;5.43;;;24.20;63.60;;;;;;5048452;28;20024;-92
2021/06/18 00:17:50;;;;;;;7.35;6.22;;;24.20;63.40;;;;;;5048839;28;20116;-92
2021/06/18 00:20:16;;;;;;;8.05;7.25;;;24.20;63.50;;;;;;5048843;28;20406;-91
2021/06/18 00:22:43;;;;;;;7.13;6.13;;;24.20;63.90;;;;;;5047595;28;20025;-90
2021/06/18 00:25:09;;;;;;;6.95;6.07;;;24.10;63.70;;;;;;5049413;28;20372;-91
2021/06/18 00:27:35;;;;;;;7.22;6.53;;;24.10;63.70;;;;;;5049762;28;20029;-92
2021/06/18 00:30:01;;;;;;;9.52;7.20;;;24.10;63.90;;;;;;5045627;28;20079;-92
2021/06/18 00:32:26;;;;;;;5.57;4.57;;;24.00;64.10;;;;;;5049535;28;20035;-92
2021/06/18 00:34:52;;;;;;;6.25;5.10;;;24.00;64.30;;;;;;5049116;28;20039;-90
2021/06/18 00:37:18;;;;;;;5.13;4.53;;;23.90;64.50;;;;;;5049097;28;20025;-91
2021/06/18 00:39:43;;;;;;;7.68;6.97;;;24.00;64.30;;;;;;5048487;28;20060;-91
2021/06/18 00:42:09;;;;;;;8.30;7.20;;;24.00;64.10;;;;;;5044156;28;20066;-91
2021/06/18 00:44:35;;;;;;;7.85;7.05;;;23.90;64.20;;;;;;5045769;28;20070;-90
2021/06/18 00:47:01;;;;;;;7.97;6.85;;;23.90;64.20;;;;;;5048015;28;20021;-91
2021/06/18 00:49:27;;;;;;;8.60;6.57;;;23.80;64.10;;;;;;5047089;28;20479;-92
2021/06/18 00:51:54;;;;;;;7.22;6.53;;;23.90;64.30;;;;;;5047511;28;20040;-92
2021/06/18 00:54:29;;;;;;;7.40;6.60;;;23.80;64.30;;;;;;5049668;28;20070;-92
2021/06/18 00:56:57;;;;;;;8.93;7.88;;;23.70;64.50;;;;;;5048703;28;20024;-93
2021/06/18 00:59:23;;;;;;;7.90;7.10;;;23.70;64.70;;;;;;5046759;28;20032;-94
2021/06/18 01:01:50;;;;;;;7.80;6.63;;;23.70;64.70;;;;;;5048312;28;20227;-91
2021/06/18 01:04:16;;;;;;;10.60;8.88;;;23.60;64.70;;;;;;5046122;28;20025;-91
2021/06/18 01:06:46;;;;;;;10.25;9.00;;;23.50;65.40;;;;;;5047901;28;20463;-93
2021/06/18 01:09:13;;;;;;;8.30;7.50;;;23.50;65.60;;;;;;5048538;28;20032;-93
2021/06/18 01:11:59;;;;;;;9.93;8.60;;;23.50;65.70;;;;;;5046915;28;20533;-93
2021/06/18 01:14:56;;;;;;;9.18;7.78;;;23.40;66.30;;;;;;5048793;28;20025;-94
2021/06/18 01:17:31;;;;;;;9.40;8.43;;;23.30;66.40;;;;;;5048051;28;20037;-94
2021/06/18 01:20:33;;;;;;;10.68;9.60;;;23.40;66.40;;;;;;5045072;28;20056;-92
2021/06/18 01:23:01;;;;;;;12.10;10.87;;;23.40;66.30;;;;;;5047365;28;20117;-91
2021/06/18 01:25:50;;;;;;;8.85;7.25;;;23.20;67.30;;;;;;5048669;28;20029;-92
2021/06/18 01:28:43;;;;;;;9.45;8.00;;;23.20;67.40;;;;;;5047732;28;20064;-91
2021/06/18 01:31:13;;;;;;;11.80;10.60;;;23.20;67.30;;;;;;5047834;28;20040;-92
2021/06/18 01:33:42;;;;;;;11.55;9.80;;;23.20;67.40;;;;;;5048718;28;20029;-91
2021/06/18 01:36:11;;;;;;;10.52;9.52;;;23.20;67.50;;;;;;5048760;28;20036;-91
2021/06/18 01:38:41;;;;;;;7.68;6.07;;;23.20;67.30;;;;;;5049475;28;20549;-91
2021/06/18 01:41:12;;;;;;;12.02;10.13;;;23.30;67.00;;;;;;5051015;28;20033;-92
2021/06/18 01:43:41;;;;;;;9.43;8.43;;;23.20;67.20;;;;;;5049767;28;20033;-92
2021/06/18 01:46:10;;;;;;;10.02;7.82;;;23.20;67.10;;;;;;5050726;28;20101;-93
2021/06/18 01:48:37;;;;;;;11.98;9.45;;;23.20;66.90;;;;;;5052250;28;20029;-91
2021/06/18 01:51:04;;;;;;;12.23;10.02;;;23.20;67.20;;;;;;5051003;28;20033;-89
2021/06/18 01:53:31;;;;;;;9.98;8.23;;;23.20;67.10;;;;;;5048296;28;20548;-89
2021/06/18 01:55:58;;;;;;;7.57;6.50;;;23.30;66.90;;;;;;5052083;28;20044;-90
2021/06/18 01:58:26;;;;;;;8.80;7.43;;;23.30;66.70;;;;;;5049398;28;20434;-90
2021/06/18 02:00:52;;;;;;;9.10;7.68;;;23.40;66.50;;;;;;5050693;28;20028;-90
2021/06/18 02:03:21;;;;;;;8.25;7.45;;;23.40;66.30;;;;;;5034023;28;20395;-90
2021/06/18 02:05:48;;;;;;;7.65;6.95;;;23.50;66.10;;;;;;5049783;28;20075;-91
2021/06/18 02:08:15;;;;;;;8.27;7.40;;;23.50;65.90;;;;;;5051160;28;20017;-90
2021/06/18 02:10:43;;;;;;;9.48;8.43;;;23.50;65.80;;;;;;5051986;28;20049;-90
2021/06/18 02:13:11;;;;;;;9.50;8.60;;;23.50;65.90;;;;;;5032924;28;20013;-91
2021/06/18 02:15:38;;;;;;;9.88;8.88;;;23.40;65.90;;;;;;5051446;28;20033;-90
2021/06/18 02:18:10;;;;;;;9.27;8.38;;;23.40;66.00;;;;;;5052010;28;20013;-90
2021/06/18 02:20:37;;;;;;;9.80;7.65;;;23.50;65.90;;;;;;5033710;28;20033;-91
2021/06/18 02:23:04;;;;;;;8.10;6.07;;;23.40;65.80;;;;;;5050944;28;20025;-90
2021/06/18 02:25:33;;;;;;;9.57;8.18;;;23.40;65.90;;;;;;5048648;28;20118;-90
2021/06/18 02:27:59;;;;;;;7.75;7.00;;;23.30;66.40;;;;;;5048200;28;20037;-91
2021/06/18 02:30:25;;;;;;;8.68;7.78;;;23.40;66.30;;;;;;5033312;28;20036;-91
2021/06/18 02:32:52;;;;;;;10.00;9.00;;;23.30;66.30;;;;;;5049604;28;20108;-91
2021/06/18 02:35:18;;;;;;;9.43;8.48;;;23.40;66.30;;;;;;5051925;28;20029;-90
2021/06/18 02:37:44;;;;;;;9.48;8.48;;;23.40;66.30;;;;;;5050858;28;20025;-90
2021/06/18 02:40:16;;;;;;;10.93;9.23;;;23.30;66.30;;;;;;5048834;28;20025;-96
2021/06/18 02:43:05;;;;;;;10.60;9.50;;;23.30;66.40;;;;;;5061870;28;20022;-96
2021/06/18 02:45:32;;;;;;;10.13;8.85;;;23.30;66.50;;;;;;5055067;28;20029;-91
2021/06/18 02:48:05;;;;;;;6.82;5.90;;;23.20;66.70;;;;;;5051317;28;20111;-90
2021/06/18 02:50:39;;;;;;;9.80;8.80;;;23.20;66.50;;;;;;5049270;28;20037;-91
2021/06/18 02:53:17;;;;;;;9.05;7.35;;;23.30;66.50;;;;;;5049146;28;20060;-91
2021/06/18 02:55:48;;;;;;;8.85;7.95;;;23.20;66.70;;;;;;5031398;28;20025;-91
2021/06/18 02:58:35;;;;;;;8.93;7.90;;;23.20;66.70;;;;;;5048594;28;20032;-91
2021/06/18 03:01:03;;;;;;;11.85;10.55;;;23.20;66.70;;;;;;5046280;28;20041;-91
2021/06/18 03:03:33;;;;;;;10.98;9.85;;;23.20;66.90;;;;;;5032954;28;20056;-93
2021/06/18 03:06:01;;;;;;;10.35;9.05;;;23.10;66.90;;;;;;5031526;28;20496;-94
2021/06/18 03:08:33;;;;;;;11.75;9.25;;;23.10;66.90;;;;;;5033785;28;20071;-94
2021/06/18 03:11:00;;;;;;;7.88;6.63;;;23.10;67.00;;;;;;5033393;28;20025;-96
2021/06/18 03:13:38;;;;;;;9.13;7.55;;;23.00;67.00;;;;;;5033548;28;20057;-96
2021/06/18 03:16:05;;;;;;;9.98;8.95;;;23.10;67.10;;;;;;5053384;28;20100;-96
2021/06/18 03:18:32;;;;;;;9.02;8.13;;;23.10;67.10;;;;;;5052072;28;20017;-96
2021/06/18 03:21:00;;;;;;;9.90;8.88;;;23.00;67.00;;;;;;5034811;28;20029;-96
2021/06/18 03:23:28;;;;;;;11.02;9.73;;;23.10;67.10;;;;;;5037000;28;20028;-96
2021/06/18 03:25:55;;;;;;;10.38;9.38;;;23.00;67.10;;;;;;5035257;28;20016;-96
2021/06/18 03:28:26;;;;;;;10.40;9.30;;;23.00;67.20;;;;;;5054963;28;20041;-95
2021/06/18 03:30:52;;;;;;;10.38;9.07;;;23.00;67.30;;;;;;5052813;28;20048;-96
2021/06/18 03:33:21;;;;;;;11.90;10.48;;;23.00;67.40;;;;;;5037644;28;20025;-96
2021/06/18 03:35:48;;;;;;;10.45;9.20;;;22.90;67.60;;;;;;5038307;28;20052;-96
2021/06/18 03:38:15;;;;;;;13.38;11.98;;;22.80;67.80;;;;;;5033685;28;20025;-95
2021/06/18 03:40:42;;;;;;;15.55;12.57;;;22.80;68.20;;;;;;5030641;28;20036;-95
2021/06/18 03:43:08;;;;;;;12.57;11.27;;;22.80;68.30;;;;;;5031708;28;20475;-94
2021/06/18 03:45:37;;;;;;;10.02;9.02;;;22.80;68.30;;;;;;5030389;28;20028;-94
2021/06/18 03:48:04;;;;;;;10.73;8.98;;;22.80;68.20;;;;;;5029315;28;20018;-93
2021/06/18 03:50:32;;;;;;;9.43;8.43;;;22.80;68.10;;;;;;5046687;28;20024;-93
2021/06/18 03:52:58;;;;;;;10.55;8.75;;;22.80;68.10;;;;;;5049670;28;20052;-93
2021/06/18 03:55:24;;;;;;;9.43;8.52;;;22.90;68.20;;;;;;5047650;28;20017;-91
2021/06/18 03:57:51;;;;;;;8.60;7.70;;;22.90;68.20;;;;;;5028184;28;20033;-91
2021/06/18 04:00:18;;;;;;;10.20;9.20;;;22.90;68.10;;;;;;5030742;28;20020;-92
2021/06/18 04:02:44;;;;;;;10.70;9.18;;;22.90;67.90;;;;;;5049355;28;20036;-92
2021/06/18 04:05:22;;;;;;;9.68;8.73;;;23.00;67.80;;;;;;5050332;28;20115;-91
2021/06/18 04:07:50;;;;;;;10.02;8.98;;;23.10;67.80;;;;;;5047678;28;20387;-91
2021/06/18 04:10:17;;;;;;;10.52;9.07;;;23.10;67.60;;;;;;5031280;28;20499;-92
2021/06/18 04:12:44;;;;;;;10.00;8.98;;;23.10;67.50;;;;;;5031948;28;20037;-92
2021/06/18 04:15:11;;;;;;;14.05;12.65;;;23.10;67.50;;;;;;5031943;28;20025;-91
2021/06/18 04:17:39;;;;;;;13.60;12.02;;;23.20;67.70;;;;;;5046023;28;20105;-93
2021/06/18 04:20:06;;;;;;;14.55;12.48;;;23.10;68.00;;;;;;5031197;28;20021;-87
2021/06/18 04:22:32;;;;;;;14.35;12.07;;;23.00;69.00;;;;;;5047095;28;20028;-87
2021/06/18 04:24:58;;;;;;;12.95;11.00;;;22.80;69.70;;;;;;5029612;28;20025;-88
2021/06/18 04:27:25;;;;;;;17.08;15.27;;;22.80;70.10;;;;;;5030116;28;20071;-93
2021/06/18 04:29:51;;;;;;;11.10;8.98;;;22.60;71.60;;;;;;5048223;28;20111;-92
2021/06/18 04:32:18;;;;;;;9.48;8.23;;;22.60;71.20;;;;;;5048478;28;20025;-92
2021/06/18 04:34:44;;;;;;;9.43;8.35;;;22.60;71.00;;;;;;5049794;28;20025;-93
2021/06/18 04:37:09;;;;;;;9.77;8.60;;;22.60;71.00;;;;;;5049223;28;20032;-92
2021/06/18 04:39:35;;;;;;;9.10;8.20;;;22.60;70.90;;;;;;5048627;28;20116;-93
2021/06/18 04:42:01;;;;;;;8.95;8.05;;;22.60;70.90;;;;;;5030262;28;20053;-92
2021/06/18 04:44:27;;;;;;;6.93;6.05;;;22.60;71.10;;;;;;5049107;28;20209;-91
2021/06/18 04:46:53;;;;;;;9.30;7.22;;;22.60;71.20;;;;;;5030798;28;20033;-92
2021/06/18 04:49:19;;;;;;;9.30;7.70;;;22.70;71.40;;;;;;5031099;28;20396;-92
2021/06/18 04:51:44;;;;;;;7.60;5.75;;;22.60;72.00;;;;;;5047908;28;20091;-93
2021/06/18 04:54:11;;;;;;;8.27;7.30;;;22.60;72.00;;;;;;5048443;28;20048;-93
2021/06/18 04:56:40;;;;;;;8.52;7.47;;;22.50;72.70;;;;;;5047805;28;20048;-93
2021/06/18 04:59:06;;;;;;;7.80;6.97;;;22.40;73.50;;;;;;5041661;28;20131;-93
2021/06/18 05:01:32;;;;;;;8.68;6.85;;;22.30;73.50;;;;;;5048371;28;20124;-94
2021/06/18 05:03:58;;;;;;;10.38;8.95;;;22.30;73.70;;;;;;5049482;28;20040;-93
2021/06/18 05:06:24;;;;;;;8.25;7.45;;;22.10;75.00;;;;;;5048211;28;20073;-93
2021/06/18 05:08:51;;;;;;;6.38;5.78;;;22.00;75.50;;;;;;5049820;28;20112;-93
2021/06/18 05:11:16;;;;;;;7.68;6.88;;;21.80;76.00;;;;;;5050244;28;20033;-93
2021/06/18 05:13:42;;;;;;;8.02;7.25;;;21.70;76.50;;;;;;5053443;28;20031;-92
2021/06/18 05:16:08;;;;;;;9.85;8.05;;;21.70;76.70;;;;;;5050099;28;20518;-92
2021/06/18 05:18:34;;;;;;;10.63;9.32;;;21.60;76.90;;;;;;5051967;28;20468;-91
2021/06/18 05:21:00;;;;;;;11.63;10.48;;;21.60;76.80;;;;;;5052078;28;20041;-93
2021/06/18 05:23:25;;;;;;;11.35;10.25;;;21.60;76.80;;;;;;5052832;28;20029;-91
2021/06/18 05:25:53;;;;;;;11.02;9.93;;;21.60;77.30;;;;;;5050706;28;20029;-91
2021/06/18 05:28:19;;;;;;;10.57;8.68;;;21.60;77.20;;;;;;5056212;28;20033;-90
2021/06/18 05:30:44;;;;;;;11.15;10.05;;;21.70;77.30;;;;;;5056520;28;20131;-91
2021/06/18 05:33:10;;;;;;;9.80;8.80;;;21.60;77.50;;;;;;5055286;28;20052;-90
2021/06/18 05:35:35;;;;;;;10.27;9.27;;;21.70;77.40;;;;;;5057215;28;20160;-92
2021/06/18 05:38:01;;;;;;;12.02;10.80;;;21.70;77.30;;;;;;5059413;28;20032;-89
2021/06/18 05:40:26;;;;;;;11.50;9.88;;;21.70;77.20;;;;;;5053112;28;20025;-87
2021/06/18 05:42:52;;;;;;;12.13;10.93;;;21.90;77.10;;;;;;5054608;28;20043;-89
2021/06/18 05:45:17;;;;;;;9.35;8.23;;;21.90;76.80;;;;;;5051985;28;20025;-89
2021/06/18 05:47:43;;;;;;;12.10;9.75;;;22.00;76.60;;;;;;5053960;28;20029;-90
2021/06/18 05:50:10;;;;;;;11.95;10.75;;;22.10;76.40;;;;;;5054222;28;20040;-95
2021/06/18 05:52:35;;;;;;;10.38;9.27;;;22.20;76.40;;;;;;5053642;28;20032;-88
2021/06/18 05:55:01;;;;;;;9.57;6.90;;;22.30;76.20;;;;;;5050351;28;20565;-85
2021/06/18 05:57:27;;;;;;;8.85;8.00;;;22.30;76.00;;;;;;5050935;28;20029;-84
2021/06/18 05:59:52;;;;;;;9.20;8.27;;;22.40;75.80;;;;;;5049986;28;20031;-83
2021/06/18 06:02:19;;;;;;;9.73;8.60;;;22.50;75.40;;;;;;5047728;28;20033;-83
2021/06/18 06:04:44;;;;;;;9.35;8.45;;;22.60;75.40;;;;;;5049556;28;20060;-84
2021/06/18 06:07:10;;;;;;;7.10;6.18;;;22.60;75.10;;;;;;5046407;28;20555;-83
2021/06/18 06:09:35;;;;;;;6.95;6.25;;;22.80;75.00;;;;;;5050021;28;20025;-82
2021/06/18 06:12:01;;;;;;;9.00;7.80;;;22.90;74.70;;;;;;5032016;28;20549;-83
2021/06/18 06:14:27;;;;;;;8.50;7.70;;;23.00;74.80;;;;;;5049424;28;20040;-83
2021/06/18 06:16:52;;;;;;;9.40;8.50;;;23.00;74.60;;;;;;5047847;28;20436;-89
2021/06/18 06:19:18;;;;;;;9.15;8.35;;;23.00;74.70;;;;;;5030698;28;20025;-88
2021/06/18 06:21:44;;;;;;;8.50;7.70;;;23.10;74.80;;;;;;5032119;28;20025;-86
2021/06/18 06:24:11;;;;;;;7.40;6.72;;;23.10;74.70;;;;;;5050750;28;20021;-87
2021/06/18 06:26:38;;;;;;;7.10;6.40;;;23.30;74.50;;;;;;5044140;28;20536;-86
2021/06/18 06:29:03;;;;;;;7.18;6.47;;;23.60;74.10;;;;;;5028471;28;20075;-87
2021/06/18 06:31:30;;;;;;;8.25;7.45;;;23.80;73.50;;;;;;5031370;28;20430;-86
2021/06/18 06:33:56;;;;;;;8.27;7.50;;;23.90;73.20;;;;;;5031158;28;20025;-86
2021/06/18 06:36:23;;;;;;;8.18;7.35;;;24.00;73.20;;;;;;5048233;28;20089;-85
2021/06/18 06:38:49;;;;;;;5.72;4.97;;;24.00;73.10;;;;;;5086148;23;20090;-95
2021/06/18 06:41:15;;;;;;;8.18;7.35;;;24.10;73.00;;;;;;5071227;28;20150;-86
2021/06/18 06:43:40;;;;;;;7.80;7.00;;;24.10;72.90;;;;;;5064076;28;20123;-84
2021/06/18 06:46:06;;;;;;;9.25;8.35;;;24.20;72.50;;;;;;5044194;28;20021;-85
2021/06/18 06:48:32;;;;;;;7.55;6.47;;;24.30;72.50;;;;;;5048512;28;20316;-86
2021/06/18 06:50:58;;;;;;;6.75;6.10;;;24.40;72.30;;;;;;5041084;28;20029;-86
2021/06/18 06:53:24;;;;;;;7.43;6.13;;;24.40;72.10;;;;;;5030105;28;20160;-84
2021/06/18 06:55:49;;;;;;;7.10;6.40;;;24.50;71.90;;;;;;5046900;28;20107;-84
2021/06/18 06:58:16;;;;;;;9.20;7.53;;;24.60;71.60;;;;;;5049729;28;20013;-86
2021/06/18 07:00:42;;;;;;;8.40;6.47;;;24.50;71.50;;;;;;5048422;28;20021;-86
2021/06/18 07:03:07;;;;;;;7.47;6.68;;;24.50;71.60;;;;;;5039898;28;20035;-86
2021/06/18 07:05:33;;;;;;;9.45;8.48;;;24.30;71.70;;;;;;5045847;28;20021;-86
2021/06/18 07:07:58;;;;;;;9.07;8.18;;;24.20;72.00;;;;;;5029290;28;20028;-88
2021/06/18 07:10:24;;;;;;;10.38;9.13;;;24.20;72.30;;;;;;5047607;28;20037;-86
2021/06/18 07:12:50;;;;;;;9.70;8.70;;;24.30;72.30;;;;;;5028762;28;20029;-85
2021/06/18 07:15:16;;;;;;;9.60;8.13;;;24.30;72.40;;;;;;5045289;28;20532;-87
2021/06/18 07:17:41;;;;;;;9.27;7.68;;;24.50;72.60;;;;;;5046833;28;20104;-85
2021/06/18 07:20:08;;;;;;;9.25;8.35;;;24.70;72.10;;;;;;5048065;28;20496;-88
2021/06/18 07:22:33;;;;;;;8.30;7.50;;;24.80;71.90;;;;;;5028947;28;20044;-86
2021/06/18 07:24:59;;;;;;;7.22;6.53;;;24.80;71.40;;;;;;5028682;28;20028;-87
2021/06/18 07:27:26;;;;;;;7.95;6.78;;;24.90;71.00;;;;;;5048970;28;20032;-89
2021/06/18 07:29:53;;;;;;;8.75;7.95;;;24.80;70.60;;;;;;5048539;28;20091;-92
2021/06/18 07:32:19;;;;;;;8.07;6.95;;;24.90;70.50;;;;;;5049591;28;20588;-89
2021/06/18 07:34:45;;;;;;;11.57;10.38;;;24.90;70.10;;;;;;5032162;28;20033;-89
2021/06/18 07:37:10;;;;;;;9.30;7.90;;;24.90;70.00;;;;;;5047601;28;20029;-89
2021/06/18 07:39:36;;;;;;;6.65;6.03;;;24.90;70.10;;;;;;5047976;28;20073;-89
2021/06/18 07:42:02;;;;;;;7.38;6.68;;;24.90;69.90;;;;;;5047080;28;20374;-87
2021/06/18 07:44:28;;;;;;;9.90;8.90;;;25.00;69.90;;;;;;5029775;28;20060;-87
2021/06/18 07:46:53;;;;;;;7.10;6.40;;;24.90;70.00;;;;;;5028848;28;20049;-87
2021/06/18 07:49:19;;;;;;;7.75;6.95;;;24.90;70.00;;;;;;5047472;28;20112;-90
2021/06/18 07:51:45;;;;;;;10.13;9.02;;;24.80;70.10;;;;;;5049273;28;20033;-88
2021/06/18 07:54:10;;;;;;;10.68;9.27;;;24.50;71.50;;;;;;5030383;28;20025;-87
2021/06/18 07:56:44;;;;;;;9.52;8.55;;;24.50;71.00;;;;;;5048275;28;20461;-92
2021/06/18 07:59:11;;;;;;;10.82;9.82;;;24.30;71.10;;;;;;5047003;28;20053;-91
2021/06/18 08:01:37;;;;;;;11.60;10.40;;;24.20;71.20;;;;;;5046798;28;20033;-88
2021/06/18 08:04:03;;;;;;;11.70;10.60;;;24.10;71.40;;;;;;5045180;28;20112;-85
2021/06/18 08:06:28;;;;;;;12.35;11.18;;;24.10;71.70;;;;;;5029356;28;20560;-88
2021/06/18 08:08:54;;;;;;;11.60;10.32;;;24.10;71.90;;;;;;5042527;28;20040;-88
2021/06/18 08:11:19;;;;;;;9.15;8.25;;;24.00;71.90;;;;;;5047878;28;20036;-88
2021/06/18 08:13:45;;;;;;;9.50;8.52;;;24.00;71.80;;;;;;5045430;28;20032;-87
2021/06/18 08:16:11;;;;;;;9.20;8.20;;;24.00;71.70;;;;;;5047559;28;20050;-92
2021/06/18 08:18:38;;;;;;;9.73;8.73;;;24.00;71.70;;;;;;5046926;28;20033;-86
2021/06/18 08:21:05;;;;;;;11.20;10.10;;;24.00;71.70;;;;;;5029594;28;20044;-86
2021/06/18 08:23:31;;;;;;;11.05;9.95;;;23.90;71.80;;;;;;5043828;28;20495;-87
2021/06/18 08:25:57;;;;;;;12.23;11.02;;;23.90;72.00;;;;;;5044131;28;20036;-87
2021/06/18 08:28:22;;;;;;;10.77;9.57;;;23.80;72.10;;;;;;5047447;28;20037;-86
2021/06/18 08:30:48;;;;;;;10.45;9.45;;;23.80;72.20;;;;;;5049466;28;20055;-87
2021/06/18 08:33:13;;;;;;;13.25;11.95;;;23.70;72.40;;;;;;5028274;28;20099;-86
2021/06/18 08:35:39;;;;;;;13.98;12.57;;;23.70;72.80;;;;;;5048772;28;20051;-87
2021/06/18 08:38:05;;;;;;;13.48;12.13;;;23.60;73.10;;;;;;5044626;28;20043;-86
2021/06/18 08:40:33;;;;;;;16.92;15.13;;;23.50;73.40;;;;;;5046752;28;20048;-85
2021/06/18 08:43:01;;;;;;;21.80;19.63;;;23.50;74.00;;;;;;5045864;28;20024;-89
2021/06/18 08:45:27;;;;;;;19.25;17.25;;;23.40;74.80;;;;;;5048000;28;20120;-88
2021/06/18 08:47:54;;;;;;;11.02;9.93;;;23.30;75.40;;;;;;5048248;28;20021;-86
2021/06/18 08:50:23;;;;;;;13.05;11.77;;;23.30;75.10;;;;;;5028078;28;20071;-87
2021/06/18 08:52:58;;;;;;;16.02;14.35;;;23.40;75.00;;;;;;5042853;28;20049;-89
2021/06/18 08:55:27;;;;;;;18.60;16.80;;;23.40;75.20;;;;;;5042988;28;20110;-88
2021/06/18 08:57:54;;;;;;;18.65;16.75;;;23.50;75.30;;;;;;5044815;28;20048;-87
2021/06/18 09:00:25;;;;;;;20.52;18.52;;;23.60;74.90;;;;;;5045169;28;20029;-88
2021/06/18 09:02:51;;;;;;;15.45;13.82;;;23.60;74.90;;;;;;5048448;28;20037;-87
2021/06/18 09:05:17;;;;;;;21.27;19.02;;;23.70;74.80;;;;;;5030340;28;20033;-88
2021/06/18 09:07:58;;;;;;;20.00;17.92;;;23.70;74.90;;;;;;5048126;28;20036;-88
2021/06/18 09:10:33;;;;;;;16.73;15.03;;;23.70;74.60;;;;;;5026658;28;20025;-88
2021/06/18 09:13:07;;;;;;;18.48;16.58;;;23.80;74.60;;;;;;5026790;28;20463;-87
2021/06/18 09:15:34;;;;;;;13.68;11.43;;;23.90;74.10;;;;;;5025067;28;20021;-88
2021/06/18 09:18:31;;;;;;;16.48;14.77;;;24.10;73.60;;;;;;5027572;28;20021;-88
2021/06/18 09:21:03;;;;;;;16.40;14.80;;;24.20;73.30;;;;;;5028576;28;20045;-88
2021/06/18 09:23:37;;;;;;;13.13;11.77;;;24.50;72.80;;;;;;5028871;28;20082;-87
2021/06/18 09:26:25;;;;;;;14.10;12.50;;;24.70;72.10;;;;;;5047362;28;20025;-88
2021/06/18 09:29:01;;;;;;;12.57;11.27;;;24.80;71.40;;;;;;5025091;28;20126;-87
2021/06/18 09:31:29;;;;;;;11.48;10.27;;;25.10;70.90;;;;;;5048311;28;20407;-86
2021/06/18 09:33:55;;;;;;;12.10;10.77;;;25.40;70.50;;;;;;5048328;28;20025;-87
2021/06/18 09:36:21;;;;;;;14.68;13.10;;;25.70;70.00;;;;;;5048301;28;20087;-86
2021/06/18 09:38:51;;;;;;;13.95;12.52;;;25.80;69.20;;;;;;5047384;28;20362;-87
2021/06/18 09:41:34;;;;;;;19.40;16.48;;;25.80;68.70;;;;;;5029445;28;20087;-86
2021/06/18 09:44:02;;;;;;;13.73;12.32;;;25.90;68.10;;;;;;5047880;28;20044;-86
2021/06/18 09:46:42;;;;;;;16.55;14.93;;;26.10;68.00;;;;;;5044916;28;20544;-85
2021/06/18 09:49:16;;;;;;;13.15;11.75;;;26.10;67.70;;;;;;5046729;28;20386;-86
2021/06/18 09:51:56;;;;;;;17.23;15.50;;;26.30;67.30;;;;;;5011183;28;20052;-86
2021/06/18 09:54:22;;;;;;;16.65;15.02;;;26.40;66.10;;;;;;5045356;28;20047;-86
2021/06/18 09:56:48;;;;;;;16.33;14.73;;;26.40;65.30;;;;;;5047693;28;20048;-86
2021/06/18 09:59:22;;;;;;;16.17;14.57;;;26.40;65.30;;;;;;5032949;28;20017;-86
2021/06/18 10:01:54;;;;;;;12.77;11.45;;;26.60;65.00;;;;;;5031349;28;20046;-85
2021/06/18 10:04:23;;;;;;;;;;;26.60;64.30;;;;;;5049392;28;20025;-87
2021/06/18 10:06:49;;;;;;;14.25;12.75;;;26.70;64.20;;;;;;5026816;28;19909;-86
2021/06/18 10:09:14;;;;;;;13.30;10.07;;;26.80;64.40;;;;;;5031787;28;20029;-86
2021/06/18 10:11:47;;;;;;;12.48;11.27;;;26.90;64.00;;;;;;5031829;28;20033;-86
2021/06/18 10:14:14;;;;;;;10.80;9.63;;;27.00;63.30;;;;;;5049354;28;20029;-87
2021/06/18 10:16:41;;;;;;;10.40;9.40;;;27.10;62.90;;;;;;5047676;28;20490;-87
2021/06/18 10:19:07;;;;;;;12.18;10.85;;;27.20;62.20;;;;;;5031513;28;20063;-88
2021/06/18 10:21:44;;;;;;;12.68;10.27;;;27.30;62.10;;;;;;5030965;28;20025;-87
2021/06/18 10:24:11;;;;;;;12.63;11.10;;;27.30;62.00;;;;;;5031050;28;20047;-87
2021/06/18 10:26:39;;;;;;;8.43;7.60;;;27.30;61.60;;;;;;5032127;28;20083;-87
2021/06/18 10:29:04;;;;;;;11.05;9.95;;;27.40;61.80;;;;;;5050353;28;20475;-87
2021/06/18 10:31:35;;;;;;;8.35;7.20;;;27.40;61.70;;;;;;5049999;28;20055;-87
2021/06/18 10:34:15;;;;;;;11.82;10.65;;;27.60;62.10;;;;;;5050533;28;20017;-87
2021/06/18 10:36:42;;;;;;;10.63;9.52;;;27.70;61.50;;;;;;5050622;28;20031;-87
2021/06/18 10:39:16;;;;;;;8.73;7.10;;;27.90;61.50;;;;;;5049753;28;20078;-87
2021/06/18 10:41:48;;;;;;;13.63;11.73;;;28.10;61.30;;;;;;5049609;28;20462;-87
2021/06/18 10:44:39;;;;;;;12.90;11.30;;;28.10;60.40;;;;;;5032268;28;20017;-87
2021/06/18 10:47:06;;;;;;;11.65;10.50;;;28.00;60.20;;;;;;5030972;28;20043;-87
2021/06/18 10:49:39;;;;;;;12.25;10.43;;;28.00;60.20;;;;;;5050348;28;20025;-88
2021/06/18 10:52:25;;;;;;;14.35;12.85;;;28.10;60.30;;;;;;5027901;28;20084;-88
2021/06/18 10:54:56;;;;;;;9.90;8.10;;;28.20;60.40;;;;;;5047157;28;20074;-87
2021/06/18 10:57:23;;;;;;;14.52;12.88;;;28.30;60.10;;;;;;5048888;28;20024;-86
2021/06/18 10:59:54;;;;;;;15.73;14.02;;;28.40;59.80;;;;;;5030518;28;20021;-87
2021/06/18 11:04:56;;;;;;;13.18;11.77;;;28.50;59.70;;;;;;5050013;28;20033;-87
2021/06/18 11:07:29;;;;;;;16.15;14.55;;;28.50;59.50;;;;;;5048102;28;20037;-87
2021/06/18 11:10:00;;;;;;;14.90;13.07;;;28.50;59.80;;;;;;5026107;28;20033;-87
2021/06/18 11:12:26;;;;;;;17.33;15.63;;;28.60;59.00;;;;;;5045756;28;20504;-87
2021/06/18 11:14:54;;;;;;;15.10;13.52;;;28.60;59.20;;;;;;5030165;28;20325;-88
2021/06/18 11:17:52;;;;;;;14.48;13.05;;;28.60;59.40;;;;;;5030377;28;20115;-88
2021/06/18 11:20:19;;;;;;;13.05;11.30;;;28.70;59.50;;;;;;5027872;28;20130;-87
2021/06/18 11:22:54;;;;;;;11.70;10.55;;;28.90;59.10;;;;;;5048557;28;20323;-88
2021/06/18 11:25:41;;;;;;;16.95;15.25;;;29.10;59.00;;;;;;5047004;28;20459;-88
2021/06/18 11:28:22;;;;;;;15.13;13.52;;;29.20;58.50;;;;;;5050974;28;20684;-87
2021/06/18 11:31:21;;;;;;;10.60;9.02;;;29.30;58.60;;;;;;5043528;28;20383;-86
2021/06/18 11:33:52;;;;;;;15.65;14.07;;;29.50;58.50;;;;;;5022815;28;20045;-86
2021/06/18 11:36:21;;;;;;;17.45;14.02;;;29.60;57.60;;;;;;5044491;28;20567;-86
2021/06/18 11:38:49;;;;;;;16.13;14.50;;;29.30;57.60;;;;;;5025080;28;20051;-86
2021/06/18 11:41:19;;;;;;;13.35;12.05;;;29.30;57.60;;;;;;5027115;28;20041;-88
2021/06/18 11:43:45;;;;;;;11.23;10.13;;;29.40;57.80;;;;;;5022937;28;20036;-90
2021/06/18 11:46:11;;;;;;;12.60;9.65;;;29.60;57.70;;;;;;5029938;28;20025;-90
2021/06/18 11:48:37;;;;;;;17.02;15.32;;;29.80;56.90;;;;;;5049022;28;20041;-91
2021/06/18 11:51:03;;;;;;;10.30;9.20;;;29.70;56.40;;;;;;5050956;28;20033;-90
2021/06/18 11:53:37;;;;;;;12.20;10.43;;;30.00;57.00;;;;;;5049536;28;20091;-90
2021/06/18 11:56:05;;;;;;;18.27;16.23;;;30.10;56.30;;;;;;5050931;28;20029;-90
2021/06/18 11:58:41;;;;;;;15.85;14.25;;;30.20;55.70;;;;;;5044733;28;20037;-87
2021/06/18 12:01:24;;;;;;;11.00;9.63;;;30.10;55.60;;;;;;5043478;28;20033;-87
2021/06/18 12:03:52;;;;;;;9.68;8.73;;;30.30;55.90;;;;;;5022102;28;20025;-87
2021/06/18 12:06:26;;;;;;;9.25;7.90;;;30.60;55.50;;;;;;5045681;28;20027;-88
2021/06/18 12:09:01;;;;;;;10.82;9.27;;;31.00;55.40;;;;;;5027363;28;20063;-88
2021/06/18 12:11:34;;;;;;;11.68;10.45;;;31.10;55.40;;;;;;5041719;28;20025;-87
2021/06/18 12:14:00;;;;;;;9.57;8.55;;;31.20;53.80;;;;;;5047347;28;20029;-87
2021/06/18 12:16:30;;;;;;;10.25;8.57;;;31.30;54.10;;;;;;5046877;28;20017;-87
2021/06/18 12:19:15;;;;;;;7.40;6.40;;;31.20;52.80;;;;;;5048814;28;20078;-89
2021/06/18 12:21:41;;;;;;;7.65;6.85;;;31.30;52.80;;;;;;5045832;28;20044;-87
2021/06/18 12:24:07;;;;;;;10.13;8.25;;;31.70;52.90;;;;;;5047722;28;20024;-89
2021/06/18 12:26:33;;;;;;;7.72;6.50;;;31.70;51.70;;;;;;5047078;28;20037;-89
2021/06/18 12:29:04;;;;;;;6.63;5.95;;;31.80;52.00;;;;;;5044940;28;20459;-89
2021/06/18 12:31:33;;;;;;;;;;;31.90;51.50;;;;;;5029389;28;20550;-88
2021/06/18 12:34:00;;;;;;;8.82;5.93;;;32.10;50.80;;;;;;5046799;28;19966;-87
2021/06/18 12:36:28;;;;;;;7.88;7.00;;;32.10;50.10;;;;;;5025582;28;20021;-87
2021/06/18 12:38:54;;;;;;;6.25;5.43;;;32.10;48.90;;;;;;5022131;28;20044;-87
2021/06/18 12:41:28;;;;;;;6.53;5.90;;;32.00;49.40;;;;;;5026825;28;20033;-87
2021/06/18 12:44:04;;;;;;;7.53;6.40;;;32.10;49.60;;;;;;5026058;28;20029;-87
2021/06/18 12:46:30;;;;;;;9.52;7.30;;;32.10;49.50;;;;;;5042287;28;20032;-86
2021/06/18 12:49:10;;;;;;;8.43;6.50;;;32.10;49.10;;;;;;5043897;28;20255;-86